createdAt,value
2016-11-08T10:54:15.894Z,1007.45
2016-11-08T10:54:56.575Z,1007.44
2016-11-08T10:55:37.292Z,1007.39
2016-11-08T10:56:17.993Z,1007.39
2016-11-08T10:56:58.700Z,1007.38
2016-11-08T10:57:39.398Z,1007.35
2016-11-08T10:58:20.098Z,1007.36
2016-11-08T10:59:00.770Z,1007.35
2016-11-08T10:59:41.483Z,1007.39
2016-11-08T11:00:22.172Z,1007.32
2016-11-08T11:01:02.885Z,1007.34
2016-11-08T11:01:43.621Z,1007.24
2016-11-08T11:02:24.347Z,1007.36
2016-11-08T11:03:05.018Z,1007.27
2016-11-08T11:03:45.676Z,1007.29
2016-11-08T11:04:26.380Z,1007.36
2016-11-08T11:05:07.072Z,1007.3
2016-11-08T11:05:47.758Z,1007.3
2016-11-08T11:06:28.471Z,1007.3
2016-11-08T11:07:09.146Z,1007.31
2016-11-08T11:07:49.884Z,1007.24
2016-11-08T11:08:30.578Z,1007.31
2016-11-08T11:09:11.258Z,1007.19
2016-11-08T11:09:51.928Z,1007.32
2016-11-08T11:10:32.631Z,1007.22
2016-11-08T11:11:13.990Z,1007.27
2016-11-08T11:11:54.665Z,1007.14
2016-11-08T11:12:35.361Z,1007.29
2016-11-08T11:13:16.050Z,1007.24
2016-11-08T11:13:56.685Z,1007.26
2016-11-08T11:14:37.403Z,1007.24
2016-11-08T11:15:18.160Z,1007.21
2016-11-08T11:15:58.877Z,1007.22
2016-11-08T11:16:39.573Z,1007.36
2016-11-08T11:17:20.280Z,1007.41
2016-11-08T11:18:00.996Z,1007.36
2016-11-08T11:18:41.640Z,1007.37
2016-11-08T11:19:22.365Z,1007.44
2016-11-08T11:20:03.079Z,1007.43
2016-11-08T11:20:43.716Z,1007.38
2016-11-08T11:21:24.421Z,1007.37
2016-11-08T11:22:05.084Z,1007.4
2016-11-08T11:22:45.762Z,1007.37
2016-11-08T11:23:26.482Z,1007.45
2016-11-08T11:24:07.141Z,1007.46
2016-11-08T11:24:47.872Z,1007.41
2016-11-08T11:25:28.553Z,1007.39
2016-11-08T11:26:09.272Z,1007.34
2016-11-08T11:26:49.936Z,1007.43
2016-11-08T11:27:30.648Z,1007.4
2016-11-08T11:28:11.303Z,1007.45
2016-11-08T11:28:52.008Z,1007.42
2016-11-08T11:29:32.695Z,1007.43
2016-11-08T11:30:13.379Z,1007.45
2016-11-08T11:30:54.083Z,1007.42
2016-11-08T11:31:34.797Z,1007.44
2016-11-08T11:32:15.525Z,1007.38
2016-11-08T11:32:56.260Z,1007.45
2016-11-08T11:33:36.955Z,1007.42
2016-11-08T11:34:17.656Z,1007.37
2016-11-08T11:34:58.351Z,1007.43
2016-11-08T11:35:39.201Z,1007.41
2016-11-08T11:36:19.892Z,1007.43
2016-11-08T11:37:00.544Z,1007.41
2016-11-08T11:37:41.301Z,1007.39
2016-11-08T11:38:21.996Z,1007.4
2016-11-08T11:39:03.432Z,1007.39
2016-11-08T11:39:43.399Z,1007.4
2016-11-08T11:40:24.097Z,1007.37
2016-11-08T11:41:04.775Z,1007.41
2016-11-08T11:41:45.444Z,1007.36
2016-11-08T11:42:26.233Z,1007.38
2016-11-08T11:43:06.928Z,1007.36
2016-11-08T11:43:47.607Z,1007.4
2016-11-08T11:44:28.316Z,1007.43
2016-11-08T11:45:08.966Z,1007.34
2016-11-08T11:45:49.691Z,1007.4
2016-11-08T11:46:30.352Z,1007.34
2016-11-08T11:47:11.106Z,1007.39
2016-11-08T11:47:51.778Z,1007.39
2016-11-08T11:48:32.461Z,1007.37
2016-11-08T11:49:13.185Z,1007.4
2016-11-08T11:49:53.857Z,1007.36
2016-11-08T11:50:34.548Z,1007.4
2016-11-08T11:51:15.243Z,1007.42
2016-11-08T11:51:55.926Z,1007.37
2016-11-08T11:52:36.635Z,1007.39
2016-11-08T11:53:17.364Z,1007.39
2016-11-08T11:53:58.071Z,1007.39
2016-11-08T11:54:38.799Z,1007.38
2016-11-08T11:55:19.480Z,1007.41
2016-11-08T11:56:00.184Z,1007.39
2016-11-08T11:56:40.851Z,1007.37
2016-11-08T11:57:21.593Z,1007.43
2016-11-08T11:58:02.286Z,1007.39
2016-11-08T11:58:42.997Z,1007.33
2016-11-08T11:59:23.621Z,1007.36
2016-11-08T12:00:04.325Z,1007.37
2016-11-08T12:00:44.999Z,1007.38
2016-11-08T12:01:25.707Z,1007.38
2016-11-08T12:02:06.381Z,1007.29
2016-11-08T12:02:47.074Z,1007.34
2016-11-08T12:03:27.762Z,1007.32
2016-11-08T12:04:08.507Z,1007.37
2016-11-08T12:04:49.162Z,1007.42
2016-11-08T12:05:29.860Z,1007.39
2016-11-08T12:06:10.567Z,1007.37
2016-11-08T12:06:51.291Z,1007.37
2016-11-08T12:07:31.967Z,1007.32
2016-11-08T12:08:12.689Z,1007.34
2016-11-08T12:08:53.410Z,1007.37
2016-11-08T12:09:34.126Z,1007.32
2016-11-08T12:10:14.793Z,1007.39
2016-11-08T12:10:55.472Z,1007.36
2016-11-08T12:11:36.156Z,1007.4
2016-11-08T12:12:16.852Z,1007.47
2016-11-08T12:12:57.556Z,1007.41
2016-11-08T12:13:38.225Z,1007.41
2016-11-08T12:14:18.916Z,1007.41
2016-11-08T12:14:59.625Z,1007.42
2016-11-08T12:15:40.362Z,1007.39
2016-11-08T12:16:21.031Z,1007.37
2016-11-08T12:17:01.765Z,1007.38
2016-11-08T12:17:42.511Z,1007.38
2016-11-08T12:18:23.224Z,1007.36
2016-11-08T12:19:03.887Z,1007.38
2016-11-08T12:19:44.611Z,1007.39
2016-11-08T12:20:25.280Z,1007.37
2016-11-08T12:21:05.982Z,1007.37
2016-11-08T12:21:46.662Z,1007.31
2016-11-08T12:22:27.350Z,1007.33
2016-11-08T12:23:08.069Z,1007.28
2016-11-08T12:23:48.778Z,1007.34
2016-11-08T12:24:29.464Z,1007.37
2016-11-08T12:25:10.149Z,1007.36
2016-11-08T12:25:50.880Z,1007.34
2016-11-08T12:26:31.555Z,1007.34
2016-11-08T12:27:12.269Z,1007.4
2016-11-08T12:27:52.927Z,1007.43
2016-11-08T12:28:33.683Z,1007.42
2016-11-08T12:29:14.361Z,1007.38
2016-11-08T12:29:55.281Z,1007.39
2016-11-08T12:30:35.976Z,1007.43
2016-11-08T12:31:16.683Z,1007.44
2016-11-08T12:31:57.377Z,1007.39
2016-11-08T12:32:38.087Z,1007.36
2016-11-08T12:33:18.748Z,1007.37
2016-11-08T12:33:59.447Z,1007.34
2016-11-08T12:34:40.151Z,1007.34
2016-11-08T12:35:20.834Z,1007.39
2016-11-08T12:36:01.545Z,1007.34
2016-11-08T12:36:42.266Z,1007.37
2016-11-08T12:37:22.946Z,1007.33
2016-11-08T12:38:03.625Z,1007.3
2016-11-08T12:38:44.345Z,1007.23
2016-11-08T12:39:25.018Z,1007.29
2016-11-08T12:40:05.735Z,1007.35
2016-11-08T12:40:46.420Z,1007.35
2016-11-08T12:41:27.067Z,1007.42
2016-11-08T12:42:07.779Z,1007.44
2016-11-08T12:42:48.513Z,1007.44
2016-11-08T12:43:29.168Z,1007.49
2016-11-08T12:44:09.893Z,1007.52
2016-11-08T12:44:50.562Z,1007.49
2016-11-08T12:45:31.258Z,1007.46
2016-11-08T12:46:11.985Z,1007.46
2016-11-08T12:46:52.665Z,1007.54
2016-11-08T12:47:33.393Z,1007.6
2016-11-08T12:48:14.098Z,1007.6
2016-11-08T12:48:54.773Z,1007.57
2016-11-08T12:49:35.505Z,1007.59
2016-11-08T12:50:16.222Z,1007.58
2016-11-08T12:50:56.893Z,1007.58
2016-11-08T12:51:37.595Z,1007.6
2016-11-08T12:52:18.315Z,1007.68
2016-11-08T12:52:58.981Z,1007.68
2016-11-08T12:53:39.652Z,1007.64
2016-11-08T12:54:20.335Z,1007.64
2016-11-08T12:55:01.021Z,1007.65
2016-11-08T12:55:41.715Z,1007.58
2016-11-08T12:56:22.424Z,1007.61
2016-11-08T12:57:03.175Z,1007.61
2016-11-08T12:57:43.808Z,1007.6
2016-11-08T12:58:24.493Z,1007.53
2016-11-08T12:59:05.155Z,1007.49
2016-11-08T12:59:45.943Z,1007.59
2016-11-08T13:00:26.641Z,1007.55
2016-11-08T13:01:07.356Z,1007.61
2016-11-08T13:01:48.045Z,1007.63
2016-11-08T13:02:28.774Z,1007.62
2016-11-08T13:03:09.523Z,1007.6
2016-11-08T13:03:50.207Z,1007.56
2016-11-08T13:04:30.891Z,1007.62
2016-11-08T13:05:11.641Z,1007.59
2016-11-08T13:05:52.342Z,1007.53
2016-11-08T13:06:33.060Z,1007.52
2016-11-08T13:07:13.772Z,1007.56
2016-11-08T13:07:54.420Z,1007.55
2016-11-08T13:08:35.123Z,1007.54
2016-11-08T13:09:15.826Z,1007.51
2016-11-08T13:09:56.456Z,1007.46
2016-11-08T13:10:37.168Z,1007.47
2016-11-08T13:11:17.842Z,1007.48
2016-11-08T13:11:58.548Z,1007.49
2016-11-08T13:12:39.280Z,1007.45
2016-11-08T13:13:20.013Z,1007.47
2016-11-08T13:14:00.674Z,1007.46
2016-11-08T13:14:41.363Z,1007.41
2016-11-08T13:15:22.034Z,1007.38
2016-11-08T13:16:02.731Z,1007.22
2016-11-08T13:16:43.443Z,1007.38
2016-11-08T13:17:24.106Z,1007.41
2016-11-08T13:18:04.830Z,1007.41
2016-11-08T13:18:45.551Z,1007.41
2016-11-08T13:19:26.233Z,1007.4
2016-11-08T13:20:06.910Z,1007.33
2016-11-08T13:20:47.569Z,1007.45
2016-11-08T13:21:28.247Z,1007.43
2016-11-08T13:22:08.964Z,1007.51
2016-11-08T13:22:49.673Z,1007.48
2016-11-08T13:23:30.361Z,1007.39
2016-11-08T13:24:11.055Z,1007.35
2016-11-08T13:24:51.741Z,1007.37
2016-11-08T13:25:32.834Z,1007.36
2016-11-08T13:26:13.197Z,1007.35
2016-11-08T13:26:53.857Z,1007.31
2016-11-08T13:27:34.539Z,1007.35
2016-11-08T13:28:15.203Z,1007.26
2016-11-08T13:28:55.888Z,1007.34
2016-11-08T13:29:36.592Z,1007.32
2016-11-08T13:30:17.274Z,1007.29
2016-11-08T13:30:57.985Z,1007.28
2016-11-08T13:31:38.690Z,1007.3
2016-11-08T13:32:19.398Z,1007.35
2016-11-08T13:33:00.035Z,1007.29
2016-11-08T13:33:40.706Z,1007.34
2016-11-08T13:34:21.436Z,1007.33
2016-11-08T13:35:02.107Z,1007.34
2016-11-08T13:35:42.850Z,1007.33
2016-11-08T13:36:23.573Z,1007.33
2016-11-08T13:37:05.015Z,1007.32
2016-11-08T13:37:44.944Z,1007.32
2016-11-08T13:38:25.568Z,1007.34
2016-11-08T13:39:06.269Z,1007.43
2016-11-08T13:39:46.928Z,1007.42
2016-11-08T13:40:27.590Z,1007.45
2016-11-08T13:41:08.289Z,1007.38
2016-11-08T13:41:48.956Z,1007.4
2016-11-08T13:42:29.646Z,1007.39
2016-11-08T13:43:10.339Z,1007.27
2016-11-08T13:43:51.014Z,1007.43
2016-11-08T13:44:31.694Z,1007.43
2016-11-08T13:45:12.417Z,1007.34
2016-11-08T13:45:53.051Z,1007.41
2016-11-08T13:46:33.748Z,1007.44
2016-11-08T13:47:14.407Z,1007.47
2016-11-08T13:47:55.055Z,1007.41
2016-11-08T13:48:35.785Z,1007.36
2016-11-08T13:49:16.485Z,1007.35
2016-11-08T13:49:57.185Z,1007.34
2016-11-08T13:50:37.847Z,1007.4
2016-11-08T13:51:18.540Z,1007.5
2016-11-08T13:51:59.204Z,1007.53
2016-11-08T13:52:39.911Z,1007.57
2016-11-08T13:53:20.604Z,1007.58
2016-11-08T13:54:01.283Z,1007.61
2016-11-08T13:54:41.920Z,1007.64
2016-11-08T13:55:22.604Z,1007.67
2016-11-08T13:56:03.300Z,1007.64
2016-11-08T13:56:43.966Z,1007.64
2016-11-08T13:57:24.664Z,1007.6
2016-11-08T13:58:05.331Z,1007.63
2016-11-08T13:58:46.004Z,1007.65
2016-11-08T13:59:26.701Z,1007.65
2016-11-08T14:00:07.376Z,1007.65
2016-11-08T14:00:48.029Z,1007.61
2016-11-08T14:01:28.856Z,1007.56
2016-11-08T14:02:09.597Z,1007.54
2016-11-08T14:02:50.347Z,1007.58
2016-11-08T14:03:30.984Z,1007.59
2016-11-08T14:04:11.677Z,1007.52
2016-11-08T14:04:52.351Z,1007.55
2016-11-08T14:05:33.041Z,1007.48
2016-11-08T14:06:13.739Z,1007.5
2016-11-08T14:06:54.423Z,1007.5
2016-11-08T14:07:35.097Z,1007.55
2016-11-08T14:08:15.794Z,1007.47
2016-11-08T14:08:56.487Z,1007.53
2016-11-08T14:09:37.167Z,1007.46
2016-11-08T14:10:17.840Z,1007.5
2016-11-08T14:10:58.544Z,1007.51
2016-11-08T14:11:39.257Z,1007.51
2016-11-08T14:12:19.904Z,1007.51
2016-11-08T14:13:00.577Z,1007.48
2016-11-08T14:13:41.299Z,1007.54
2016-11-08T14:14:22.096Z,1007.43
2016-11-08T14:15:02.807Z,1007.47
2016-11-08T14:15:43.487Z,1007.5
2016-11-08T14:16:24.210Z,1007.47
2016-11-08T14:17:04.877Z,1007.54
2016-11-08T14:17:45.558Z,1007.54
2016-11-08T14:18:26.277Z,1007.53
2016-11-08T14:19:06.938Z,1007.51
2016-11-08T14:19:47.639Z,1007.44
2016-11-08T14:20:28.324Z,1007.49
2016-11-08T14:21:09.044Z,1007.53
2016-11-08T14:21:49.702Z,1007.46
2016-11-08T14:22:31.256Z,1007.47
2016-11-08T14:23:11.964Z,1007.49
2016-11-08T14:23:52.653Z,1007.5
2016-11-08T14:24:33.359Z,1007.48
2016-11-08T14:25:14.074Z,1007.49
2016-11-08T14:25:54.778Z,1007.48
2016-11-08T14:26:35.493Z,1007.55
2016-11-08T14:27:16.181Z,1007.46
2016-11-08T14:27:57.003Z,1007.48
2016-11-08T14:28:37.781Z,1007.49
2016-11-08T14:29:18.485Z,1007.53
2016-11-08T14:29:59.163Z,1007.5
2016-11-08T14:32:12.018Z,1007.56
2016-11-08T14:32:52.710Z,1007.47
2016-11-08T14:33:33.376Z,1007.53
2016-11-08T14:34:14.069Z,1007.49
2016-11-08T14:34:54.730Z,1007.55
2016-11-08T14:35:35.505Z,1007.57
2016-11-08T14:36:16.301Z,1007.51
2016-11-08T14:36:57.105Z,1007.59
2016-11-08T14:37:37.887Z,1007.52
2016-11-08T14:38:18.634Z,1007.53
2016-11-08T14:38:59.557Z,1007.56
2016-11-08T14:39:40.292Z,1007.51
2016-11-08T14:40:21.100Z,1007.53
2016-11-08T14:41:01.938Z,1007.46
2016-11-08T14:41:42.745Z,1007.44
2016-11-08T14:42:23.566Z,1007.43
2016-11-08T14:43:04.396Z,1007.49
2016-11-08T14:43:45.183Z,1007.52
2016-11-08T14:44:26.013Z,1007.49
2016-11-08T14:45:06.807Z,1007.5
2016-11-08T14:45:47.591Z,1007.48
2016-11-08T14:46:28.346Z,1007.44
2016-11-08T14:47:09.179Z,1007.47
2016-11-08T14:47:50.012Z,1007.5
2016-11-08T14:48:30.771Z,1007.45
2016-11-08T14:49:11.536Z,1007.52
2016-11-08T14:49:52.305Z,1007.51
2016-11-08T14:50:33.079Z,1007.51
2016-11-08T14:51:13.882Z,1007.54
2016-11-08T14:51:54.696Z,1007.55
2016-11-08T14:52:35.510Z,1007.54
2016-11-08T14:53:16.273Z,1007.57
2016-11-08T14:53:58.735Z,1007.54
2016-11-08T14:54:39.617Z,1007.48
2016-11-08T14:55:20.455Z,1007.54
2016-11-08T14:56:01.232Z,1007.52
2016-11-08T14:56:42.053Z,1007.55
2016-11-08T14:57:22.807Z,1007.5
2016-11-08T14:58:03.572Z,1007.55
2016-11-08T14:58:44.352Z,1007.5
2016-11-08T14:59:25.105Z,1007.5
2016-11-08T15:00:05.933Z,1007.5
2016-11-08T15:00:46.685Z,1007.52
2016-11-08T15:01:27.442Z,1007.53
2016-11-08T15:02:08.229Z,1007.6
2016-11-08T15:02:48.994Z,1007.57
2016-11-08T15:03:29.747Z,1007.61
2016-11-08T15:04:10.543Z,1007.63
2016-11-08T15:04:51.350Z,1007.58
2016-11-08T15:05:32.143Z,1007.64
2016-11-08T15:06:12.922Z,1007.61
2016-11-08T15:06:53.697Z,1007.66
2016-11-08T15:07:34.474Z,1007.7
2016-11-08T15:08:15.255Z,1007.61
2016-11-08T15:08:56.019Z,1007.65
2016-11-08T15:09:36.840Z,1007.66
2016-11-08T15:10:17.639Z,1007.68
2016-11-08T15:10:58.382Z,1007.63
2016-11-08T15:11:39.182Z,1007.64
2016-11-08T15:12:19.991Z,1007.66
2016-11-08T15:13:00.789Z,1007.64
2016-11-08T15:13:41.641Z,1007.67
2016-11-08T15:15:03.276Z,1007.66
2016-11-08T15:15:44.037Z,1007.7
2016-11-08T15:16:24.829Z,1007.69
2016-11-08T15:17:05.599Z,1007.68
2016-11-08T15:17:46.365Z,1007.72
2016-11-08T15:18:27.168Z,1007.71
2016-11-08T15:19:07.931Z,1007.75
2016-11-08T15:19:48.713Z,1007.72
2016-11-08T15:20:29.500Z,1007.76
2016-11-08T15:21:10.312Z,1007.77
2016-11-08T15:21:51.123Z,1007.72
2016-11-08T15:22:31.932Z,1007.74
2016-11-08T15:23:12.720Z,1007.8
2016-11-08T15:23:54.457Z,1007.77
2016-11-08T15:24:34.318Z,1007.76
2016-11-08T15:25:15.109Z,1007.76
2016-11-08T15:25:55.915Z,1007.68
2016-11-08T15:26:36.716Z,1007.73
2016-11-08T15:27:17.549Z,1007.73
2016-11-08T15:27:58.292Z,1007.76
2016-11-08T15:28:39.044Z,1007.8
2016-11-08T15:29:19.837Z,1007.77
2016-11-08T15:30:00.630Z,1007.79
2016-11-08T15:30:41.421Z,1007.79
2016-11-08T15:31:22.231Z,1007.87
2016-11-08T15:32:03.091Z,1007.89
2016-11-08T15:32:43.935Z,1007.81
2016-11-08T15:33:24.683Z,1007.76
2016-11-08T15:34:05.511Z,1007.84
2016-11-08T15:34:47.068Z,1007.78
2016-11-08T15:35:27.876Z,1007.83
2016-11-08T15:36:08.698Z,1007.8
2016-11-08T15:36:49.416Z,1007.86
2016-11-08T15:37:30.747Z,1007.88
2016-11-08T15:38:11.526Z,1007.89
2016-11-08T15:38:52.312Z,1007.85
2016-11-08T15:39:33.118Z,1007.93
2016-11-08T15:40:13.942Z,1007.94
2016-11-08T15:40:54.745Z,1007.95
2016-11-08T15:41:35.506Z,1007.98
2016-11-08T15:42:16.304Z,1007.94
2016-11-08T15:42:57.166Z,1007.96
2016-11-08T15:43:37.983Z,1007.95
2016-11-08T15:44:18.791Z,1007.95
2016-11-08T15:44:59.607Z,1007.95
2016-11-08T15:45:40.399Z,1007.98
2016-11-08T15:46:21.232Z,1008.01
2016-11-08T15:47:02.060Z,1007.99
2016-11-08T15:47:42.861Z,1007.99
2016-11-08T15:48:23.715Z,1008.02
2016-11-08T15:49:04.497Z,1008.01
2016-11-08T15:49:45.300Z,1008.04
2016-11-08T15:50:26.050Z,1008.06
2016-11-08T15:51:06.893Z,1008.08
2016-11-08T15:51:47.703Z,1008.03
2016-11-08T15:52:28.451Z,1008.07
2016-11-08T15:53:09.321Z,1008.09
2016-11-08T15:53:50.118Z,1008.08
2016-11-08T15:54:30.906Z,1008.06
2016-11-08T15:55:11.659Z,1008.13
2016-11-08T15:55:52.418Z,1008.21
2016-11-08T15:56:33.223Z,1008.2
2016-11-08T15:57:13.954Z,1008.16
2016-11-08T15:57:54.753Z,1008.22
2016-11-08T15:58:35.521Z,1008.24
2016-11-08T15:59:16.299Z,1008.26
2016-11-08T15:59:57.370Z,1008.23
2016-11-08T16:00:38.194Z,1008.26
2016-11-08T16:01:18.994Z,1008.28
2016-11-08T16:01:59.802Z,1008.22
2016-11-08T16:02:40.594Z,1008.28
2016-11-08T16:03:21.414Z,1008.31
2016-11-08T16:04:02.245Z,1008.26
2016-11-08T16:04:43.130Z,1008.25
2016-11-08T16:05:23.943Z,1008.28
2016-11-08T16:06:04.729Z,1008.27
2016-11-08T16:06:45.478Z,1008.24
2016-11-08T16:07:26.305Z,1008.26
2016-11-08T16:08:07.097Z,1008.27
2016-11-08T16:08:47.895Z,1008.22
2016-11-08T16:09:28.655Z,1008.26
2016-11-08T16:10:09.479Z,1008.22
2016-11-08T16:10:50.326Z,1008.23
2016-11-08T16:11:31.151Z,1008.24
2016-11-08T16:12:11.930Z,1008.22
2016-11-08T16:12:52.772Z,1008.21
2016-11-08T16:13:33.588Z,1008.19
2016-11-08T16:14:14.324Z,1008.14
2016-11-08T16:14:55.146Z,1008.12
2016-11-08T16:15:35.918Z,1008.14
2016-11-08T16:16:16.742Z,1008.16
2016-11-08T16:16:58.484Z,1008.11
2016-11-08T16:17:38.355Z,1008.13
2016-11-08T16:18:19.139Z,1008.07
2016-11-08T16:18:59.954Z,1008.13
2016-11-08T16:19:40.722Z,1008.08
2016-11-08T16:20:21.551Z,1008.15
2016-11-08T16:21:02.326Z,1008.07
2016-11-08T16:21:43.096Z,1008.08
2016-11-08T16:22:23.879Z,1008.15
2016-11-08T16:23:04.767Z,1008.14
2016-11-08T16:23:45.555Z,1008.09
2016-11-08T16:24:26.317Z,1008.08
2016-11-08T16:25:07.111Z,1008.07
2016-11-08T16:25:47.912Z,1008.06
2016-11-08T16:26:28.695Z,1008.06
2016-11-08T16:27:10.003Z,1008.03
2016-11-08T16:27:50.699Z,1008.06
2016-11-08T16:28:31.391Z,1008.05
2016-11-08T16:29:12.113Z,1008.04
2016-11-08T16:29:52.789Z,1008.06
2016-11-08T16:30:33.507Z,1008.06
2016-11-08T16:31:14.737Z,1008.11
2016-11-08T16:31:55.438Z,1008.15
2016-11-08T16:32:36.178Z,1008.13
2016-11-08T16:33:16.880Z,1008.16
2016-11-08T16:33:57.553Z,1008.16
2016-11-08T16:34:38.232Z,1008.21
2016-11-08T16:35:18.915Z,1008.24
2016-11-08T16:35:59.608Z,1008.24
2016-11-08T16:36:40.301Z,1008.24
2016-11-08T16:37:20.982Z,1008.24
2016-11-08T16:38:01.679Z,1008.26
2016-11-08T16:38:42.307Z,1008.26
2016-11-08T16:39:22.983Z,1008.24
2016-11-08T16:40:03.678Z,1008.29
2016-11-08T16:40:44.353Z,1008.3
2016-11-08T16:41:25.020Z,1008.33
2016-11-08T16:42:05.704Z,1008.35
2016-11-08T16:42:46.369Z,1008.35
2016-11-08T16:43:27.056Z,1008.35
2016-11-08T16:44:07.713Z,1008.38
2016-11-08T16:44:48.382Z,1008.39
2016-11-08T16:45:29.013Z,1008.42
2016-11-08T16:46:09.709Z,1008.44
2016-11-08T16:46:50.394Z,1008.44
2016-11-08T16:47:31.091Z,1008.42
2016-11-08T16:48:11.795Z,1008.4
2016-11-08T16:48:52.454Z,1008.39
2016-11-08T16:49:33.112Z,1008.42
2016-11-08T16:50:13.874Z,1008.47
2016-11-08T16:50:54.553Z,1008.5
2016-11-08T16:51:35.252Z,1008.51
2016-11-08T16:52:15.929Z,1008.46
2016-11-08T16:52:56.635Z,1008.47
2016-11-08T16:53:37.324Z,1008.47
2016-11-08T16:54:17.959Z,1008.52
2016-11-08T16:54:58.667Z,1008.46
2016-11-08T16:55:39.353Z,1008.47
2016-11-08T16:56:20.004Z,1008.5
2016-11-08T16:57:00.701Z,1008.51
2016-11-08T16:57:41.361Z,1008.49
2016-11-08T16:58:22.107Z,1008.48
2016-11-08T16:59:02.774Z,1008.54
2016-11-08T16:59:43.502Z,1008.49
2016-11-08T17:00:24.191Z,1008.5
2016-11-08T17:01:04.878Z,1008.49
2016-11-08T17:01:45.577Z,1008.49
2016-11-08T17:02:26.249Z,1008.48
2016-11-08T17:03:06.962Z,1008.5
2016-11-08T17:03:47.680Z,1008.48
2016-11-08T17:04:28.358Z,1008.56
2016-11-08T17:05:09.008Z,1008.51
2016-11-08T17:05:49.668Z,1008.53
2016-11-08T17:06:31.010Z,1008.54
2016-11-08T17:07:11.022Z,1008.57
2016-11-08T17:07:51.672Z,1008.61
2016-11-08T17:08:32.356Z,1008.63
2016-11-08T17:09:13.085Z,1008.64
2016-11-08T17:09:53.750Z,1008.62
2016-11-08T17:10:34.433Z,1008.63
2016-11-08T17:11:15.137Z,1008.62
2016-11-08T17:11:55.849Z,1008.65
2016-11-08T17:12:36.522Z,1008.62
2016-11-08T17:13:17.233Z,1008.65
2016-11-08T17:13:57.885Z,1008.64
2016-11-08T17:14:38.583Z,1008.63
2016-11-08T17:15:19.242Z,1008.68
2016-11-08T17:15:59.955Z,1008.64
2016-11-08T17:16:40.616Z,1008.62
2016-11-08T17:17:21.324Z,1008.66
2016-11-08T17:18:02.020Z,1008.68
2016-11-08T17:18:43.522Z,1008.7
2016-11-08T17:19:23.426Z,1008.65
2016-11-08T17:20:04.147Z,1008.69
2016-11-08T17:20:44.895Z,1008.71
2016-11-08T17:21:25.665Z,1008.72
2016-11-08T17:22:06.380Z,1008.77
2016-11-08T17:22:47.101Z,1008.71
2016-11-08T17:23:27.804Z,1008.78
2016-11-08T17:24:08.528Z,1008.82
2016-11-08T17:24:49.202Z,1008.79
2016-11-08T17:25:29.930Z,1008.79
2016-11-08T17:26:10.642Z,1008.81
2016-11-08T17:26:51.311Z,1008.8
2016-11-08T17:27:31.957Z,1008.8
2016-11-08T17:28:12.591Z,1008.84
2016-11-08T17:28:53.271Z,1008.82
2016-11-08T17:29:33.961Z,1008.85
2016-11-08T17:30:14.599Z,1008.82
2016-11-08T17:30:55.283Z,1008.81
2016-11-08T17:31:35.937Z,1008.92
2016-11-08T17:32:16.636Z,1008.85
2016-11-08T17:32:57.401Z,1008.87
2016-11-08T17:33:38.075Z,1008.85
2016-11-08T17:34:18.757Z,1008.82
2016-11-08T17:34:59.422Z,1008.86
2016-11-08T17:35:40.086Z,1008.86
2016-11-08T17:36:20.771Z,1008.9
2016-11-08T17:37:01.461Z,1008.87
2016-11-08T17:37:42.164Z,1008.91
2016-11-08T17:38:22.807Z,1008.96
2016-11-08T17:39:03.460Z,1008.94
2016-11-08T17:39:44.112Z,1008.95
2016-11-08T17:40:24.769Z,1008.97
2016-11-08T17:41:05.444Z,1009
2016-11-08T17:41:46.086Z,1008.99
2016-11-08T17:42:26.752Z,1009.01
2016-11-08T17:43:07.425Z,1009.02
2016-11-08T17:43:48.158Z,1008.97
2016-11-08T17:44:28.872Z,1008.99
2016-11-08T17:45:09.607Z,1009.01
2016-11-08T17:45:50.296Z,1008.96
2016-11-08T17:46:31.004Z,1008.96
2016-11-08T17:47:11.673Z,1008.97
2016-11-08T17:47:52.358Z,1008.93
2016-11-08T17:48:33.078Z,1008.98
2016-11-08T17:49:13.715Z,1009.02
2016-11-08T17:49:54.437Z,1009.06
2016-11-08T17:50:35.083Z,1009.1
2016-11-08T17:51:15.754Z,1009.08
2016-11-08T17:51:56.476Z,1009.08
2016-11-08T17:52:37.174Z,1009.08
2016-11-08T17:53:17.865Z,1009.1
2016-11-08T17:53:58.600Z,1009.12
2016-11-08T17:54:39.285Z,1009.15
2016-11-08T17:55:20.014Z,1009.12
2016-11-08T17:56:00.717Z,1009.14
2016-11-08T17:56:41.379Z,1009.08
2016-11-08T17:57:22.069Z,1009.12
2016-11-08T17:58:02.735Z,1009.13
2016-11-08T17:58:43.392Z,1009.16
2016-11-08T17:59:24.120Z,1009.15
2016-11-08T18:00:04.801Z,1009.18
2016-11-08T18:00:45.536Z,1009.25
2016-11-08T18:01:26.176Z,1009.27
2016-11-08T18:02:06.883Z,1009.3
2016-11-08T18:02:47.574Z,1009.32
2016-11-08T18:03:28.223Z,1009.36
2016-11-08T18:04:08.889Z,1009.43
2016-11-08T18:04:49.584Z,1009.44
2016-11-08T18:05:30.284Z,1009.42
2016-11-08T18:06:10.977Z,1009.45
2016-11-08T18:06:51.663Z,1009.47
2016-11-08T18:07:32.306Z,1009.47
2016-11-08T18:08:12.969Z,1009.43
2016-11-08T18:08:53.678Z,1009.46
2016-11-08T18:09:34.407Z,1009.48
2016-11-08T18:10:15.066Z,1009.49
2016-11-08T18:10:55.745Z,1009.49
2016-11-08T18:11:36.470Z,1009.52
2016-11-08T18:12:17.171Z,1009.51
2016-11-08T18:12:57.863Z,1009.52
2016-11-08T18:13:38.551Z,1009.54
2016-11-08T18:14:19.201Z,1009.56
2016-11-08T18:14:59.835Z,1009.58
2016-11-08T18:15:40.553Z,1009.51
2016-11-08T18:16:21.218Z,1009.58
2016-11-08T18:17:01.900Z,1009.59
2016-11-08T18:17:42.541Z,1009.65
2016-11-08T18:18:23.238Z,1009.71
2016-11-08T18:19:03.881Z,1009.69
2016-11-08T18:19:44.572Z,1009.7
2016-11-08T18:20:25.263Z,1009.74
2016-11-08T18:21:05.938Z,1009.69
2016-11-08T18:21:46.640Z,1009.73
2016-11-08T18:22:27.394Z,1009.7
2016-11-08T18:23:08.030Z,1009.73
2016-11-08T18:23:48.696Z,1009.81
2016-11-08T18:24:29.449Z,1009.72
2016-11-08T18:25:10.151Z,1009.82
2016-11-08T18:25:50.795Z,1009.79
2016-11-08T18:26:31.474Z,1009.81
2016-11-08T18:27:12.117Z,1009.78
2016-11-08T18:27:52.784Z,1009.75
2016-11-08T18:28:33.437Z,1009.79
2016-11-08T18:29:14.109Z,1009.83
2016-11-08T18:29:54.779Z,1009.85
2016-11-08T18:30:35.474Z,1009.86
2016-11-08T18:31:16.188Z,1009.84
2016-11-08T18:31:56.881Z,1009.77
2016-11-08T18:32:37.523Z,1009.78
2016-11-08T18:33:18.206Z,1009.81
2016-11-08T18:33:58.860Z,1009.79
2016-11-08T18:34:39.501Z,1009.78
2016-11-08T18:35:20.189Z,1009.84
2016-11-08T18:36:00.903Z,1009.83
2016-11-08T18:36:41.568Z,1009.84
2016-11-08T18:37:22.250Z,1009.86
2016-11-08T18:38:02.950Z,1009.84
2016-11-08T18:38:43.607Z,1009.84
2016-11-08T18:39:24.303Z,1009.82
2016-11-08T18:40:04.975Z,1009.84
2016-11-08T18:40:45.654Z,1009.8
2016-11-08T18:41:26.320Z,1009.71
2016-11-08T18:42:07.048Z,1009.8
2016-11-08T18:42:47.712Z,1009.84
2016-11-08T18:43:28.405Z,1009.88
2016-11-08T18:44:09.086Z,1009.91
2016-11-08T18:44:49.766Z,1009.92
2016-11-08T18:45:30.453Z,1009.93
2016-11-08T18:46:11.157Z,1009.94
2016-11-08T18:46:51.824Z,1009.95
2016-11-08T18:47:32.467Z,1009.9
2016-11-08T18:48:13.201Z,1009.96
2016-11-08T18:48:53.868Z,1009.95
2016-11-08T18:49:34.525Z,1009.95
2016-11-08T18:50:15.207Z,1010
2016-11-08T18:50:55.877Z,1010.05
2016-11-08T18:51:36.579Z,1010.03
2016-11-08T18:52:17.239Z,1010.01
2016-11-08T18:52:57.909Z,1010.05
2016-11-08T18:53:38.623Z,1010.06
2016-11-08T18:54:19.313Z,1010.08
2016-11-08T18:55:00.037Z,1010.09
2016-11-08T18:55:40.739Z,1010.04
2016-11-08T18:56:21.412Z,1010.05
2016-11-08T18:57:02.098Z,1010.04
2016-11-08T18:57:42.834Z,1010.05
2016-11-08T18:58:23.529Z,1010.05
2016-11-08T18:59:04.205Z,1010.06
2016-11-08T18:59:44.919Z,1010.08
2016-11-08T19:00:25.585Z,1010.09
2016-11-08T19:01:06.296Z,1010.04
2016-11-08T19:01:46.964Z,1010.09
2016-11-08T19:02:27.629Z,1010.04
2016-11-08T19:03:08.336Z,1010.1
2016-11-08T19:03:49.028Z,1010.08
2016-11-08T19:04:29.720Z,1010.09
2016-11-08T19:05:10.434Z,1010.12
2016-11-08T19:05:51.129Z,1010.17
2016-11-08T19:06:31.781Z,1010.15
2016-11-08T19:07:12.473Z,1010.15
2016-11-08T19:07:53.153Z,1010.15
2016-11-08T19:08:33.813Z,1010.18
2016-11-08T19:09:14.488Z,1010.14
2016-11-08T19:09:55.197Z,1010.18